Airfield :
LOGIN :

Register | Disclaimer

   EN    FR    IT 

 










Legend :    VFR   Marginal VFR   IFR   Intensive IFR   Very Intensive IFR
Visi :
Ceiling :
>= 8 km
>= 3000ft
5 to 8 km
1000 to 3000 ft
1500m to 5 km
500 to 1000 ft
800 to 1500m
200 to 500 ft
< 800m
< 200 ft
Symbols :   Thunderstorms  Fog  Heavy snow  Heavy precipitations  Wind > 20 kt
SIGMETs :     Misc.  Thunderstorms  Icing  Turbulence  Mountain Waves  Volcanic Ashes







- Airport Elevation : 83 ft
- IATA code : LHR
- Download approach charts


EGLL - London Heathrow

CURRENT METAR :
  • 181520Z AUTO 25014KT 9999 SCT046 21/09 Q1006

EXPIRED METARs :
  • 181450Z AUTO 26016KT 9999 FEW049 21/09 Q1006 NOSIG
  • 181420Z AUTO 25016KT 9999 FEW049 22/10 Q1005
  • 181350Z AUTO 26014KT 9999 SCT047 21/10 Q1005
  • 181320Z AUTO 27012KT 220V290 9999 SCT044 22/10 Q1005 NOSIG

TAF TAF EGLL
Valid from the 18 at 12:00 until the 19 at 18:00 UTC


181054Z 1812/1918 25012KT 9999 SCT035
PROB40
TEMPO 1812/1819 26015G25KT 7000 SHRA
TEMPO 1910/1918 6000 SHRA
PROB30
TEMPO 1911/1916 25015G25KT 4000 +SHRA
No reported NOTAMs for that airfield.



MET'MAP, your aeronautical weather chart ! - Copyright ORBIFLY December 2007 - Disclaimer

ORBIFLY MET'MAP TEAM :

Programming & Development : Alexandra Zaïnal
Concept & Development : Baudouin d'Aumeries
Co-Development & Prog : Marc-Olivier Méhu
Technical & hardware support : Manuel Goepfert

Contact : metmap@orbifly.com




SOURCES & CREDITS :

   NOAA